createdAt,value
2018-11-11T00:00:24.847Z,1.90
2018-11-11T00:02:55.611Z,1.90
2018-11-11T00:05:25.971Z,1.90
2018-11-11T00:07:56.280Z,1.50
2018-11-11T00:10:26.475Z,1.50
2018-11-11T00:12:56.799Z,1.83
2018-11-11T00:15:27.084Z,1.60
2018-11-11T00:17:57.659Z,1.67
2018-11-11T00:20:28.448Z,1.63
2018-11-11T00:22:59.513Z,1.63
2018-11-11T00:25:29.764Z,1.60
2018-11-11T00:28:00.252Z,1.80
2018-11-11T00:30:30.495Z,1.73
2018-11-11T00:33:00.680Z,1.50
2018-11-11T00:35:31.176Z,1.50
2018-11-11T00:38:01.628Z,1.47
2018-11-11T00:40:31.803Z,1.20
2018-11-11T00:43:02.278Z,1.50
2018-11-11T00:45:32.523Z,1.80
2018-11-11T00:48:02.789Z,1.10
2018-11-11T00:50:33.060Z,1.37
2018-11-11T00:53:03.215Z,1.30
2018-11-11T00:55:40.574Z,1.33
2018-11-11T00:58:10.919Z,1.20
2018-11-11T01:00:41.090Z,1.40
2018-11-11T01:03:11.400Z,1.27
2018-11-11T01:05:41.538Z,1.33
2018-11-11T01:08:11.814Z,1.33
2018-11-11T01:10:42.038Z,1.23
2018-11-11T01:13:12.268Z,1.37
2018-11-11T01:15:42.554Z,1.50
2018-11-11T01:18:13.144Z,1.60
2018-11-11T01:20:43.546Z,1.90
2018-11-11T01:23:13.923Z,1.60
2018-11-11T01:25:44.228Z,1.40
2018-11-11T01:28:14.609Z,1.60
2018-11-11T01:30:44.820Z,1.40
2018-11-11T01:33:15.156Z,1.20
2018-11-11T01:35:45.406Z,1.23
2018-11-11T01:38:15.673Z,1.10
2018-11-11T01:40:45.838Z,1.60
2018-11-11T01:43:16.054Z,1.43
2018-11-11T01:45:46.366Z,1.20
2018-11-11T01:48:16.625Z,1.67
2018-11-11T01:50:46.780Z,1.00
2018-11-11T01:53:17.073Z,1.40
2018-11-11T01:55:47.332Z,1.20
2018-11-11T01:58:17.545Z,1.43
2018-11-11T02:00:47.747Z,1.10
2018-11-11T02:03:18.470Z,1.10
2018-11-11T02:05:48.722Z,1.30
2018-11-11T02:08:19.143Z,1.20
2018-11-11T02:10:49.353Z,1.37
2018-11-11T02:13:19.807Z,1.20
2018-11-11T02:15:49.944Z,1.53
2018-11-11T02:18:20.161Z,1.30
2018-11-11T02:20:50.413Z,1.17
2018-11-11T02:23:20.593Z,1.30
2018-11-11T02:25:50.960Z,1.33
2018-11-11T02:28:21.246Z,1.10
2018-11-11T02:30:51.366Z,1.60
2018-11-11T02:33:21.610Z,1.27
2018-11-11T02:35:52.014Z,1.93
2018-11-11T02:38:22.281Z,0.93
2018-11-11T02:40:52.787Z,1.87
2018-11-11T02:43:22.925Z,1.17
2018-11-11T02:45:53.125Z,1.90
2018-11-11T02:48:23.339Z,1.07
2018-11-11T02:50:53.471Z,1.20
2018-11-11T02:53:23.688Z,0.83
2018-11-11T02:55:54.041Z,1.17
2018-11-11T02:58:24.238Z,1.07
2018-11-11T03:00:54.388Z,1.47
2018-11-11T03:03:24.643Z,1.30
2018-11-11T03:05:55.161Z,1.30
2018-11-11T03:08:25.577Z,1.07
2018-11-11T03:10:55.764Z,1.13
2018-11-11T03:13:26.322Z,1.40
2018-11-11T03:15:57.235Z,1.23
2018-11-11T03:18:27.644Z,1.43
2018-11-11T03:20:57.791Z,1.67
2018-11-11T03:23:28.019Z,1.23
2018-11-11T03:25:58.151Z,1.33
2018-11-11T03:28:28.387Z,1.60
2018-11-11T03:30:58.600Z,1.20
2018-11-11T03:33:28.747Z,2.03
2018-11-11T03:35:58.917Z,3.37
2018-11-11T03:38:29.080Z,1.50
2018-11-11T03:40:59.261Z,1.30
2018-11-11T03:43:29.644Z,1.20
2018-11-11T03:45:59.793Z,1.17
2018-11-11T03:48:30.284Z,1.43
2018-11-11T03:51:00.601Z,1.33
2018-11-11T03:53:30.847Z,1.30
2018-11-11T03:56:00.960Z,1.40
2018-11-11T03:58:31.205Z,1.50
2018-11-11T04:01:01.366Z,1.43
2018-11-11T04:03:31.509Z,1.40
2018-11-11T04:06:01.724Z,1.60
2018-11-11T04:08:31.911Z,1.30
2018-11-11T04:11:02.094Z,1.73
2018-11-11T04:13:32.289Z,1.60
2018-11-11T04:16:03.140Z,1.37
2018-11-11T04:18:34.775Z,2.03
2018-11-11T04:21:05.142Z,1.57
2018-11-11T04:23:35.517Z,1.83
2018-11-11T04:26:05.816Z,2.60
2018-11-11T04:28:36.054Z,1.17
2018-11-11T04:31:07.121Z,2.00
2018-11-11T04:33:37.288Z,1.63
2018-11-11T04:36:07.578Z,1.30
2018-11-11T04:38:37.814Z,2.10
2018-11-11T04:41:08.336Z,1.43
2018-11-11T04:43:38.508Z,1.23
2018-11-11T04:46:10.171Z,3.53
2018-11-11T04:48:40.335Z,1.10
2018-11-11T04:51:10.562Z,1.30
2018-11-11T04:53:40.823Z,2.40
2018-11-11T04:56:11.002Z,1.40
2018-11-11T04:58:41.167Z,1.63
2018-11-11T05:01:11.435Z,1.60
2018-11-11T05:03:41.721Z,1.80
2018-11-11T05:06:11.996Z,1.27
2018-11-11T05:08:42.207Z,1.37
2018-11-11T05:11:12.445Z,1.00
2018-11-11T05:13:42.610Z,1.30
2018-11-11T05:16:12.767Z,1.00
2018-11-11T05:18:43.035Z,1.43
2018-11-11T05:21:13.564Z,1.83
2018-11-11T05:23:43.760Z,2.53
2018-11-11T05:26:13.957Z,1.63
2018-11-11T05:28:44.173Z,1.33
2018-11-11T05:31:14.281Z,0.97
2018-11-11T05:33:44.630Z,1.03
2018-11-11T05:36:14.895Z,1.10
2018-11-11T05:38:45.069Z,1.20
2018-11-11T05:41:15.483Z,1.70
2018-11-11T05:43:45.720Z,1.20
2018-11-11T05:46:16.200Z,1.20
2018-11-11T05:48:46.385Z,1.70
2018-11-11T05:51:16.519Z,1.17
2018-11-11T05:53:46.685Z,1.30
2018-11-11T05:56:17.009Z,1.37
2018-11-11T05:58:47.176Z,1.30
2018-11-11T06:01:17.452Z,0.93
2018-11-11T06:03:48.204Z,1.30
2018-11-11T06:06:18.824Z,1.87
2018-11-11T06:08:49.930Z,1.33
2018-11-11T06:11:20.467Z,1.30
2018-11-11T06:13:50.813Z,1.00
2018-11-11T06:16:21.229Z,1.23
2018-11-11T06:18:51.661Z,1.23
2018-11-11T06:21:21.823Z,1.40
2018-11-11T06:23:52.003Z,1.03
2018-11-11T06:26:22.174Z,1.17
2018-11-11T06:28:56.694Z,0.90
2018-11-11T06:31:27.006Z,3.03
2018-11-11T06:33:57.295Z,1.00
2018-11-11T06:36:27.982Z,1.27
2018-11-11T06:38:58.380Z,1.30
2018-11-11T06:41:28.736Z,1.10
2018-11-11T06:43:59.260Z,1.20
2018-11-11T06:46:29.392Z,2.40
2018-11-11T06:48:59.923Z,1.50
2018-11-11T06:51:30.132Z,1.43
2018-11-11T06:54:00.410Z,1.37
2018-11-11T06:56:30.632Z,1.13
2018-11-11T06:59:00.895Z,1.60
2018-11-11T07:01:31.268Z,1.53
2018-11-11T07:04:02.690Z,1.90
2018-11-11T07:06:33.301Z,1.00
2018-11-11T07:09:03.695Z,1.23
2018-11-11T07:11:34.157Z,1.27
2018-11-11T07:14:04.589Z,1.80
2018-11-11T07:16:34.858Z,1.00
2018-11-11T07:19:05.203Z,1.17
2018-11-11T07:21:35.344Z,1.20
2018-11-11T07:24:05.806Z,1.27
2018-11-11T07:26:36.355Z,1.10
2018-11-11T07:29:07.057Z,1.00
2018-11-11T07:31:37.410Z,1.30
2018-11-11T07:34:07.585Z,0.97
2018-11-11T07:36:37.696Z,1.20
2018-11-11T07:39:12.953Z,1.10
2018-11-11T07:41:43.459Z,1.20
2018-11-11T07:44:13.778Z,1.33
2018-11-11T07:46:44.168Z,0.80
2018-11-11T07:49:14.611Z,1.27
2018-11-11T07:51:44.913Z,1.23
2018-11-11T07:54:15.120Z,0.90
2018-11-11T07:56:45.859Z,1.00
2018-11-11T07:59:16.572Z,1.00
2018-11-11T08:01:47.053Z,1.00
2018-11-11T08:04:17.537Z,1.00
2018-11-11T08:06:48.098Z,1.10
2018-11-11T08:09:18.614Z,1.20
2018-11-11T08:11:59.731Z,0.90
2018-11-11T08:14:32.069Z,0.97
2018-11-11T08:17:05.184Z,1.10
2018-11-11T08:19:35.514Z,0.97
2018-11-11T08:22:06.685Z,1.37
2018-11-11T08:24:37.285Z,1.20
2018-11-11T08:27:07.775Z,1.40
2018-11-11T08:29:38.155Z,0.93
2018-11-11T08:32:08.702Z,1.70
2018-11-11T08:34:39.153Z,1.77
2018-11-11T08:37:09.426Z,1.47
2018-11-11T08:39:39.758Z,1.40
2018-11-11T08:42:09.993Z,1.60
2018-11-11T08:44:40.174Z,2.57
2018-11-11T08:47:10.454Z,2.23
2018-11-11T08:49:40.758Z,1.40
2018-11-11T08:52:11.418Z,1.20
2018-11-11T08:54:41.938Z,1.30
2018-11-11T08:57:12.125Z,1.17
2018-11-11T08:59:42.372Z,1.50
2018-11-11T09:02:12.592Z,1.33
2018-11-11T09:04:42.828Z,1.00
2018-11-11T09:07:13.868Z,1.30
2018-11-11T09:09:44.416Z,1.43
2018-11-11T09:12:14.738Z,1.57
2018-11-11T09:14:45.155Z,1.80
2018-11-11T09:17:15.544Z,1.30
2018-11-11T09:19:45.823Z,0.90
2018-11-11T09:22:17.060Z,0.80
2018-11-11T09:24:47.589Z,1.00
2018-11-11T09:27:19.162Z,0.87
2018-11-11T09:29:50.088Z,1.00
2018-11-11T09:32:21.537Z,1.00
2018-11-11T09:34:52.294Z,1.23
2018-11-11T09:37:22.469Z,0.50
2018-11-11T09:39:53.600Z,0.90
2018-11-11T09:42:24.451Z,0.80
2018-11-11T09:47:33.464Z,0.73
2018-11-11T09:50:05.249Z,0.60
2018-11-11T09:52:35.684Z,0.83
2018-11-11T09:55:07.544Z,1.07
2018-11-11T09:57:39.442Z,0.70
2018-11-11T10:00:16.694Z,1.47
2018-11-11T10:02:52.493Z,2.00
2018-11-11T10:05:28.126Z,1.00
2018-11-11T10:08:06.419Z,1.00
2018-11-11T10:10:44.197Z,1.80
2018-11-11T10:13:20.648Z,1.33
2018-11-11T10:15:59.899Z,1.60
2018-11-11T10:18:33.739Z,1.03
2018-11-11T10:21:09.010Z,1.60
2018-11-11T10:23:46.731Z,1.47
2018-11-11T10:26:22.710Z,1.97
2018-11-11T10:28:57.749Z,2.00
2018-11-11T10:31:33.920Z,1.50
2018-11-11T10:34:12.252Z,1.27
2018-11-11T10:36:51.186Z,1.63
2018-11-11T10:39:26.444Z,1.23
2018-11-11T10:42:03.609Z,0.80
2018-11-11T10:44:43.236Z,1.17
2018-11-11T10:47:17.577Z,0.73
2018-11-11T10:49:52.048Z,1.00
2018-11-11T10:52:22.753Z,1.00
2018-11-11T10:54:53.044Z,1.20
2018-11-11T10:57:23.904Z,1.27
2018-11-11T10:59:54.304Z,1.70
2018-11-11T11:02:37.924Z,0.90
2018-11-11T11:05:11.992Z,1.10
2018-11-11T11:07:42.316Z,1.43
2018-11-11T11:10:13.270Z,1.03
2018-11-11T11:12:43.548Z,1.00
2018-11-11T11:15:13.782Z,0.60
2018-11-11T11:17:44.370Z,0.80
2018-11-11T11:20:14.806Z,0.73
2018-11-11T11:22:45.221Z,0.97
2018-11-11T11:25:15.515Z,1.17
2018-11-11T11:27:45.982Z,1.13
2018-11-11T11:30:16.185Z,1.80
2018-11-11T11:32:46.414Z,1.73
2018-11-11T11:35:17.455Z,1.40
2018-11-11T11:37:47.821Z,1.00
2018-11-11T11:40:18.565Z,0.90
2018-11-11T11:42:49.465Z,1.20
2018-11-11T11:45:20.085Z,1.23
2018-11-11T11:47:53.786Z,0.83
2018-11-11T11:50:24.932Z,1.37
2018-11-11T11:52:55.724Z,0.97
2018-11-11T11:55:27.046Z,1.60
2018-11-11T11:58:17.463Z,1.57
2018-11-11T12:00:48.820Z,1.97
2018-11-11T12:03:20.364Z,1.33
2018-11-11T12:05:51.421Z,1.67
2018-11-11T12:08:22.715Z,1.87
2018-11-11T12:10:53.671Z,1.87
2018-11-11T12:13:24.977Z,2.50
2018-11-11T12:18:41.199Z,1.87
2018-11-11T12:23:55.310Z,1.77
2018-11-11T12:26:34.288Z,2.20
2018-11-11T12:29:05.375Z,1.30
2018-11-11T12:31:35.923Z,1.30
2018-11-11T12:34:07.381Z,1.23
2018-11-11T12:36:38.100Z,0.90
2018-11-11T12:39:17.702Z,1.10
2018-11-11T12:41:49.040Z,1.20
2018-11-11T12:44:20.200Z,1.40
2018-11-11T12:46:50.982Z,1.67
2018-11-11T12:49:22.627Z,1.73
2018-11-11T12:51:53.649Z,1.90
2018-11-11T12:54:25.150Z,1.43
2018-11-11T12:56:56.950Z,1.30
2018-11-11T12:59:27.367Z,1.60
2018-11-11T13:01:57.751Z,1.10
2018-11-11T13:04:29.802Z,1.83
2018-11-11T13:07:00.668Z,1.30
2018-11-11T13:09:31.417Z,1.40
2018-11-11T13:12:02.215Z,1.10
2018-11-11T13:14:32.891Z,1.40
2018-11-11T13:17:04.495Z,1.07
2018-11-11T13:19:35.163Z,1.37
2018-11-11T13:22:09.649Z,0.90
2018-11-11T13:24:40.310Z,1.73
2018-11-11T13:27:11.090Z,1.20
2018-11-11T13:29:41.652Z,1.90
2018-11-11T13:32:12.384Z,1.20
2018-11-11T13:34:43.215Z,1.57
2018-11-11T13:37:13.999Z,1.57
2018-11-11T13:39:44.866Z,1.73
2018-11-11T13:42:23.458Z,1.00
2018-11-11T13:44:54.277Z,1.80
2018-11-11T13:47:25.054Z,1.33
2018-11-11T13:49:56.000Z,2.33
2018-11-11T13:52:28.598Z,1.97
2018-11-11T13:54:59.741Z,1.90
2018-11-11T13:57:31.399Z,1.57
2018-11-11T14:00:01.912Z,1.77
2018-11-11T14:02:32.413Z,2.17
2018-11-11T14:05:04.850Z,3.53
2018-11-11T14:07:35.565Z,2.07
2018-11-11T14:10:07.223Z,1.87
2018-11-11T14:12:39.834Z,1.53
2018-11-11T14:15:16.030Z,3.40
2018-11-11T14:17:47.912Z,1.97
2018-11-11T14:20:20.069Z,2.83
2018-11-11T14:22:51.547Z,2.90
2018-11-11T14:25:25.458Z,2.93
2018-11-11T14:27:57.617Z,2.00
2018-11-11T14:30:29.047Z,2.10
2018-11-11T14:33:01.161Z,2.50
2018-11-11T14:35:31.742Z,2.40
2018-11-11T14:38:02.919Z,2.10
2018-11-11T14:40:33.630Z,2.47
2018-11-11T14:43:04.043Z,1.83
2018-11-11T14:45:35.584Z,2.10
2018-11-11T14:48:07.497Z,2.27
2018-11-11T14:50:39.655Z,2.37
2018-11-11T14:53:17.851Z,2.60
2018-11-11T14:55:48.465Z,3.20
2018-11-11T14:58:20.098Z,2.97
2018-11-11T15:00:50.741Z,2.60
2018-11-11T15:03:21.960Z,2.57
2018-11-11T15:05:52.297Z,3.13
2018-11-11T15:08:24.142Z,2.20
2018-11-11T15:10:55.409Z,3.47
2018-11-11T15:13:25.816Z,2.83
2018-11-11T15:15:56.564Z,3.23
2018-11-11T15:18:27.884Z,2.70
2018-11-11T15:20:58.472Z,3.07
2018-11-11T15:23:32.700Z,3.03
2018-11-11T15:26:03.544Z,3.20
2018-11-11T15:28:34.884Z,2.07
2018-11-11T15:31:08.529Z,1.30
2018-11-11T15:33:39.695Z,1.23
2018-11-11T15:36:10.533Z,1.10
2018-11-11T15:38:43.351Z,1.37
2018-11-11T15:41:14.654Z,1.40
2018-11-11T15:43:45.179Z,2.13
2018-11-11T15:46:15.799Z,1.60
2018-11-11T15:48:48.489Z,1.53
2018-11-11T15:51:20.710Z,1.17
2018-11-11T15:53:52.225Z,1.20
2018-11-11T15:56:23.269Z,1.50
2018-11-11T15:58:55.165Z,2.40
2018-11-11T16:01:26.945Z,2.03
2018-11-11T16:03:58.250Z,1.20
2018-11-11T16:06:31.085Z,1.97
2018-11-11T16:09:11.495Z,1.70
2018-11-11T16:11:55.251Z,1.40
2018-11-11T16:14:32.730Z,1.60
2018-11-11T16:17:05.190Z,2.17
2018-11-11T16:19:40.460Z,2.20
2018-11-11T16:22:12.247Z,2.17
2018-11-11T16:24:43.576Z,2.10
2018-11-11T16:27:15.155Z,2.00
2018-11-11T16:29:47.493Z,2.10
2018-11-11T16:32:18.643Z,1.80
2018-11-11T16:34:50.013Z,2.30
2018-11-11T16:37:20.611Z,2.57
2018-11-11T16:39:51.159Z,2.23
2018-11-11T16:42:22.239Z,1.90
2018-11-11T16:44:53.645Z,2.03
2018-11-11T16:47:24.526Z,1.73
2018-11-11T16:49:54.998Z,2.00
2018-11-11T16:52:25.603Z,2.07
2018-11-11T16:54:55.959Z,1.97
2018-11-11T16:57:26.231Z,2.50
2018-11-11T16:59:57.708Z,1.90
2018-11-11T17:02:30.296Z,2.10
2018-11-11T17:05:00.779Z,2.57
2018-11-11T17:07:33.468Z,2.50
2018-11-11T17:10:04.094Z,2.10
2018-11-11T17:12:35.463Z,1.77
2018-11-11T17:15:06.479Z,2.10
2018-11-11T17:17:45.776Z,2.03
2018-11-11T17:20:17.929Z,2.70
2018-11-11T17:22:48.995Z,2.10
2018-11-11T17:25:20.440Z,2.07
2018-11-11T17:27:52.481Z,2.40
2018-11-11T17:30:26.796Z,2.03
2018-11-11T17:32:58.084Z,2.17
2018-11-11T17:35:29.512Z,1.70
2018-11-11T17:38:00.141Z,1.60
2018-11-11T17:40:31.441Z,2.20
2018-11-11T17:43:02.668Z,2.40
2018-11-11T17:45:33.759Z,3.37
2018-11-11T17:48:05.306Z,4.17
2018-11-11T17:50:36.804Z,2.70
2018-11-11T17:53:08.330Z,3.40
2018-11-11T17:55:40.451Z,1.97
2018-11-11T17:58:11.703Z,2.90
2018-11-11T18:00:43.177Z,2.70
2018-11-11T18:03:14.542Z,2.93
2018-11-11T18:05:44.982Z,3.13
2018-11-11T18:08:15.951Z,2.60
2018-11-11T18:10:51.082Z,2.50
2018-11-11T18:13:22.157Z,2.30
2018-11-11T18:15:54.442Z,2.60
2018-11-11T18:18:25.204Z,2.20
2018-11-11T18:20:55.941Z,2.60
2018-11-11T18:23:26.737Z,3.10
2018-11-11T18:25:59.034Z,2.23
2018-11-11T18:28:30.352Z,2.60
2018-11-11T18:31:01.203Z,3.07
2018-11-11T18:36:13.201Z,2.00
2018-11-11T18:38:50.430Z,2.73
2018-11-11T18:41:20.873Z,2.30
2018-11-11T18:43:51.237Z,2.27
2018-11-11T18:46:21.827Z,2.43
2018-11-11T18:48:57.415Z,2.57
2018-11-11T18:51:27.690Z,2.03
2018-11-11T18:53:58.310Z,2.47
2018-11-11T18:56:28.718Z,2.60
2018-11-11T18:58:58.901Z,2.13
2018-11-11T19:01:29.298Z,1.70
2018-11-11T19:03:59.737Z,1.87
2018-11-11T19:06:29.911Z,1.77
2018-11-11T19:09:00.195Z,1.60
2018-11-11T19:11:30.446Z,2.07
2018-11-11T19:14:00.758Z,2.07
2018-11-11T19:16:30.953Z,2.37
2018-11-11T19:19:01.372Z,2.67
2018-11-11T19:21:31.514Z,2.20
2018-11-11T19:24:01.792Z,2.10
2018-11-11T19:26:32.796Z,2.30
2018-11-11T19:29:05.803Z,3.20
2018-11-11T19:31:37.093Z,2.90
2018-11-11T19:34:09.439Z,3.50
2018-11-11T19:39:35.831Z,3.43
2018-11-11T19:42:06.836Z,2.23
2018-11-11T19:44:51.786Z,3.00
2018-11-11T19:47:25.055Z,6.67
2018-11-11T19:49:58.671Z,4.90
2018-11-11T19:55:15.964Z,3.20
2018-11-11T19:57:48.843Z,4.43
2018-11-11T20:00:24.467Z,3.63
2018-11-11T20:02:57.336Z,4.13
2018-11-11T20:05:29.177Z,3.73
2018-11-11T20:08:01.747Z,3.97
2018-11-11T20:10:36.654Z,2.73
2018-11-11T20:13:07.073Z,2.07
2018-11-11T20:15:37.570Z,4.17
2018-11-11T20:18:07.975Z,3.40
2018-11-11T20:20:40.817Z,2.60
2018-11-11T20:23:11.871Z,2.30
2018-11-11T20:25:43.474Z,3.50
2018-11-11T20:28:13.837Z,4.27
2018-11-11T20:30:45.999Z,2.87
2018-11-11T20:33:18.845Z,5.40
2018-11-11T20:35:50.799Z,6.23
2018-11-11T20:38:22.344Z,7.93
2018-11-11T20:40:53.134Z,5.33
2018-11-11T20:43:25.169Z,4.57
2018-11-11T20:45:56.524Z,4.27
2018-11-11T20:48:27.315Z,4.00
2018-11-11T20:50:58.013Z,6.27
2018-11-11T20:53:30.282Z,4.30
2018-11-11T20:56:01.091Z,7.97
2018-11-11T20:58:31.696Z,5.23
2018-11-11T21:01:03.765Z,5.70
2018-11-11T21:03:37.801Z,7.20
2018-11-11T21:06:09.302Z,3.80
2018-11-11T21:08:40.513Z,4.50
2018-11-11T21:11:13.272Z,7.70
2018-11-11T21:13:45.818Z,3.53
2018-11-11T21:16:18.180Z,5.53
2018-11-11T21:18:49.203Z,3.60
2018-11-11T21:21:20.642Z,3.83
2018-11-11T21:23:50.875Z,3.50
2018-11-11T21:26:21.188Z,3.90
2018-11-11T21:28:52.644Z,3.73
2018-11-11T21:31:23.435Z,3.30
2018-11-11T21:33:53.987Z,3.73
2018-11-11T21:36:25.982Z,4.00
2018-11-11T21:38:59.837Z,3.37
2018-11-11T21:41:30.113Z,2.80
2018-11-11T21:44:00.440Z,4.00
2018-11-11T21:46:30.764Z,3.77
2018-11-11T21:49:01.003Z,2.80
2018-11-11T21:51:31.254Z,3.50
2018-11-11T21:54:01.619Z,2.47
2018-11-11T21:56:32.014Z,2.40
2018-11-11T21:59:02.609Z,1.63
2018-11-11T22:01:33.130Z,1.23
2018-11-11T22:04:03.354Z,1.90
2018-11-11T22:06:33.570Z,1.20
2018-11-11T22:09:04.295Z,1.63
2018-11-11T22:11:34.496Z,1.33
2018-11-11T22:14:06.460Z,1.43
2018-11-11T22:16:36.770Z,1.50
2018-11-11T22:19:07.365Z,1.60
2018-11-11T22:21:37.681Z,1.57
2018-11-11T22:24:08.143Z,1.77
2018-11-11T22:26:38.334Z,1.67
2018-11-11T22:29:08.526Z,3.40
2018-11-11T22:31:38.793Z,3.03
2018-11-11T22:34:09.168Z,2.73
2018-11-11T22:36:39.491Z,3.30
2018-11-11T22:39:12.064Z,4.33
2018-11-11T22:41:42.384Z,3.73
2018-11-11T22:44:12.714Z,4.50
2018-11-11T22:46:42.932Z,4.20
2018-11-11T22:49:13.663Z,3.30
2018-11-11T22:51:43.954Z,3.23
2018-11-11T22:54:14.184Z,3.10
2018-11-11T22:56:44.458Z,2.80
2018-11-11T22:59:14.711Z,2.93
2018-11-11T23:01:44.940Z,2.80
2018-11-11T23:04:15.206Z,3.03
2018-11-11T23:06:45.620Z,2.57
2018-11-11T23:09:16.147Z,3.20
2018-11-11T23:11:46.452Z,2.40
2018-11-11T23:14:16.826Z,2.17
2018-11-11T23:16:47.162Z,2.10
2018-11-11T23:19:17.543Z,2.23
2018-11-11T23:21:48.074Z,2.50
2018-11-11T23:24:18.289Z,2.20
2018-11-11T23:26:48.601Z,3.10
2018-11-11T23:29:18.844Z,2.43
2018-11-11T23:31:49.118Z,3.30
2018-11-11T23:34:19.360Z,3.20
2018-11-11T23:36:49.795Z,3.10
2018-11-11T23:39:19.957Z,2.10
2018-11-11T23:41:50.171Z,2.33
2018-11-11T23:44:20.465Z,2.50
2018-11-11T23:46:50.684Z,1.67
2018-11-11T23:49:21.007Z,1.67
2018-11-11T23:51:51.230Z,1.80
2018-11-11T23:54:21.596Z,1.90
2018-11-11T23:56:51.978Z,1.97
2018-11-11T23:59:22.165Z,2.20
